Time;durP1;ratioP1;P1;durP2;ratioP2;P2;SDS_P1;SDS_P2;PMS_P1;PMS_P2;Temp;Humidity;BMP_temperature;BMP_pressure;BME280_temperature;BME280_humidity;BME280_pressure;Samples;Min_cycle;Max_cycle;Signal;HPM_P1;HPM_P2
2021/12/25 00:00:17;;;;;;;10.52;8.75;;;7.50;99.90;;;;;;5093281;28;20169;-52
2021/12/25 00:02:42;;;;;;;8.88;7.22;;;7.40;99.90;;;;;;5078701;28;20166;-52
2021/12/25 00:05:10;;;;;;;11.75;8.80;;;7.40;99.90;;;;;;5089158;28;20198;-52
2021/12/25 00:07:36;;;;;;;11.18;8.63;;;7.40;99.90;;;;;;5077811;28;20331;-52
2021/12/25 00:10:03;;;;;;;11.65;8.55;;;7.40;99.90;;;;;;5075132;28;20249;-51
2021/12/25 00:12:29;;;;;;;11.15;9.13;;;7.40;99.90;;;;;;5084461;28;20555;-53
2021/12/25 00:14:55;;;;;;;12.65;9.60;;;7.40;99.90;;;;;;5111792;28;20646;-53
2021/12/25 00:17:21;;;;;;;11.27;9.32;;;7.40;99.90;;;;;;5101043;28;20165;-52
2021/12/25 00:19:46;;;;;;;11.75;9.23;;;7.40;99.90;;;;;;5112796;28;20294;-53
2021/12/25 00:22:12;;;;;;;11.75;9.25;;;7.40;99.90;;;;;;5099290;28;20269;-52
2021/12/25 00:24:42;;;;;;;11.52;8.80;;;7.40;99.90;;;;;;5113033;28;20165;-53
2021/12/25 00:27:33;;;;;;;10.73;8.77;;;7.40;99.90;;;;;;5093165;28;20188;-52
2021/12/25 00:32:45;;;;;;;11.98;9.25;;;7.40;99.90;;;;;;5106834;28;20527;-53
2021/12/25 00:35:10;;;;;;;11.35;8.90;;;7.30;99.90;;;;;;5103790;28;20177;-53
2021/12/25 00:37:36;;;;;;;9.32;8.32;;;7.40;99.90;;;;;;5106971;28;20193;-52
2021/12/25 00:40:03;;;;;;;12.02;9.45;;;7.30;99.90;;;;;;5105521;28;20251;-52
2021/12/25 00:42:28;;;;;;;10.50;8.45;;;7.40;99.90;;;;;;5107803;28;20204;-52
2021/12/25 00:44:54;;;;;;;11.35;9.95;;;7.30;99.90;;;;;;5104987;28;20224;-53
2021/12/25 00:47:19;;;;;;;10.13;8.68;;;7.30;99.90;;;;;;5106019;28;20168;-52
2021/12/25 00:49:45;;;;;;;12.35;8.70;;;7.30;99.90;;;;;;5112270;28;20172;-53
2021/12/25 00:52:11;;;;;;;10.93;8.25;;;7.20;99.90;;;;;;5094522;28;20539;-52
2021/12/25 00:54:36;;;;;;;10.43;8.27;;;7.20;99.90;;;;;;5111713;28;20164;-52
2021/12/25 00:57:02;;;;;;;10.60;8.70;;;7.30;99.90;;;;;;5097666;28;20169;-52
2021/12/25 00:59:28;;;;;;;9.90;8.82;;;7.20;99.90;;;;;;5110905;28;20212;-52
2021/12/25 01:01:54;;;;;;;11.80;8.95;;;7.30;99.90;;;;;;5102662;28;20248;-52
2021/12/25 01:04:19;;;;;;;10.00;8.32;;;7.20;99.90;;;;;;5099476;28;20177;-52
2021/12/25 01:06:45;;;;;;;11.20;8.82;;;7.30;99.90;;;;;;5100146;28;20279;-52
2021/12/25 01:09:10;;;;;;;11.35;8.73;;;7.30;99.90;;;;;;5109318;28;20188;-52
2021/12/25 01:11:37;;;;;;;9.23;8.00;;;7.30;99.90;;;;;;5100343;28;20220;-52
2021/12/25 01:14:13;;;;;;;10.98;8.25;;;7.20;99.90;;;;;;5112110;28;20173;-52
2021/12/25 01:25:06;;;;;;;12.48;8.05;;;7.20;99.90;;;;;;5092133;28;20182;-53
2021/12/25 01:27:58;;;;;;;10.88;7.78;;;7.20;99.90;;;;;;5095625;28;20632;-53
2021/12/25 01:41:13;;;;;;;7.85;6.65;;;7.00;99.90;;;;;;5103149;28;20176;-53
2021/12/25 01:49:04;;;;;;;7.05;5.30;;;6.90;99.90;;;;;;5091662;28;20222;-53
2021/12/25 01:51:31;;;;;;;8.70;5.10;;;6.90;99.90;;;;;;5108184;28;20543;-54
2021/12/25 01:53:56;;;;;;;6.78;5.75;;;6.90;99.90;;;;;;5092006;28;20185;-54
2021/12/25 01:56:23;;;;;;;6.05;5.45;;;7.00;99.90;;;;;;5096014;28;20266;-54
2021/12/25 01:58:48;;;;;;;7.20;5.70;;;6.90;99.90;;;;;;5105039;28;20208;-54
2021/12/25 02:01:14;;;;;;;6.75;6.00;;;6.90;99.90;;;;;;5101944;28;20257;-54
2021/12/25 02:03:41;;;;;;;6.95;5.65;;;7.00;99.90;;;;;;5097182;28;20169;-54
2021/12/25 02:06:08;;;;;;;7.22;5.68;;;7.00;99.90;;;;;;5107998;28;20176;-54
2021/12/25 02:08:36;;;;;;;6.50;5.80;;;6.90;99.90;;;;;;5101035;28;20207;-54
2021/12/25 02:11:03;;;;;;;7.88;5.57;;;6.90;99.90;;;;;;5113779;28;20215;-52
2021/12/25 02:13:28;;;;;;;6.20;5.55;;;6.90;99.90;;;;;;5114338;28;20176;-54
2021/12/25 02:15:56;;;;;;;8.55;5.68;;;6.90;99.90;;;;;;5114003;28;20169;-53
2021/12/25 02:18:31;;;;;;;5.18;4.55;;;6.90;99.90;;;;;;5096335;28;20684;-54
2021/12/25 02:21:19;;;;;;;6.70;5.45;;;6.80;99.90;;;;;;5103318;28;20183;-54
2021/12/25 02:23:45;;;;;;;6.72;5.78;;;6.80;99.90;;;;;;5098992;28;20531;-55
2021/12/25 02:26:11;;;;;;;6.93;5.57;;;6.70;99.90;;;;;;5111526;28;20169;-54
2021/12/25 02:28:37;;;;;;;7.38;4.75;;;6.60;99.90;;;;;;5099604;28;20255;-53
2021/12/25 02:31:08;;;;;;;5.72;4.93;;;6.60;99.90;;;;;;5104716;28;20185;-54
2021/12/25 02:33:34;;;;;;;5.63;4.93;;;6.50;99.90;;;;;;5113586;28;20643;-54
2021/12/25 02:36:00;;;;;;;5.53;4.25;;;6.60;99.90;;;;;;5115388;28;20181;-54
2021/12/25 02:38:26;;;;;;;6.13;4.97;;;6.50;99.90;;;;;;5096578;28;20199;-54
2021/12/25 02:40:53;;;;;;;5.88;5.22;;;6.50;99.90;;;;;;5109559;28;20172;-53
2021/12/25 02:43:19;;;;;;;7.50;5.05;;;6.50;99.90;;;;;;5097985;28;20248;-53
2021/12/25 02:45:45;;;;;;;6.53;5.32;;;6.50;99.90;;;;;;5104369;28;20173;-54
2021/12/25 02:48:14;;;;;;;6.05;5.25;;;6.50;99.90;;;;;;5112779;28;20157;-54
2021/12/25 02:50:40;;;;;;;7.47;4.93;;;6.50;99.90;;;;;;5109688;28;20699;-54
2021/12/25 02:53:08;;;;;;;5.80;4.88;;;6.50;99.90;;;;;;5095896;28;20207;-53
2021/12/25 02:55:35;;;;;;;6.85;5.03;;;6.40;99.90;;;;;;5110857;28;20203;-53
2021/12/25 02:58:02;;;;;;;7.07;5.32;;;6.40;99.90;;;;;;5101296;28;20668;-52
2021/12/25 03:00:31;;;;;;;5.65;5.05;;;6.40;99.90;;;;;;5106277;28;20631;-53
2021/12/25 03:02:57;;;;;;;6.78;5.22;;;6.40;99.90;;;;;;5101403;28;20170;-53
2021/12/25 03:05:24;;;;;;;6.45;5.07;;;6.40;99.90;;;;;;5108759;28;20176;-53
2021/12/25 03:07:50;;;;;;;7.15;5.57;;;6.40;99.90;;;;;;5096344;28;20177;-53
2021/12/25 03:10:17;;;;;;;6.20;5.32;;;6.40;99.90;;;;;;5110557;28;20742;-54
2021/12/25 03:12:54;;;;;;;7.25;6.28;;;6.40;99.90;;;;;;5105223;28;20177;-53
2021/12/25 03:15:30;;;;;;;7.05;5.93;;;6.30;99.90;;;;;;5096665;28;20193;-53
2021/12/25 03:17:57;;;;;;;6.80;5.50;;;6.40;99.90;;;;;;5094462;28;20204;-53
2021/12/25 03:20:23;;;;;;;7.15;6.10;;;6.40;99.90;;;;;;5094020;28;20190;-53
2021/12/25 03:22:50;;;;;;;6.22;5.45;;;6.40;99.90;;;;;;5094369;28;20244;-53
2021/12/25 03:25:17;;;;;;;6.88;5.78;;;6.30;99.90;;;;;;5106482;28;20177;-53
2021/12/25 03:27:45;;;;;;;6.47;5.35;;;6.20;99.90;;;;;;5102530;28;20173;-54
2021/12/25 03:30:16;;;;;;;5.78;4.20;;;6.20;99.90;;;;;;5108005;28;20244;-53
2021/12/25 03:32:43;;;;;;;8.23;6.30;;;6.10;99.90;;;;;;5105615;28;20309;-54
2021/12/25 03:35:09;;;;;;;9.18;6.20;;;6.10;99.90;;;;;;5106765;28;20190;-54
2021/12/25 03:37:34;;;;;;;6.80;5.28;;;6.00;99.90;;;;;;5104013;28;20275;-54
2021/12/25 03:40:00;;;;;;;6.85;5.43;;;6.00;99.90;;;;;;5106505;28;20340;-55
2021/12/25 03:42:26;;;;;;;8.45;6.40;;;6.00;99.90;;;;;;5104258;28;20648;-54
2021/12/25 03:44:51;;;;;;;7.28;5.75;;;5.90;99.90;;;;;;5088201;28;20213;-54
2021/12/25 03:47:32;;;;;;;8.43;6.45;;;5.90;99.90;;;;;;5099920;28;20649;-54
2021/12/25 03:58:19;;;;;;;10.25;6.53;;;5.70;99.90;;;;;;5108651;28;20235;-55
2021/12/25 04:00:47;;;;;;;9.05;7.25;;;5.80;99.90;;;;;;5102609;28;20187;-53
2021/12/25 04:03:23;;;;;;;8.55;6.50;;;5.70;99.90;;;;;;5100431;28;20202;-54
2021/12/25 04:05:49;;;;;;;10.85;7.55;;;5.80;99.90;;;;;;5101569;28;20651;-54
2021/12/25 04:08:18;;;;;;;9.10;7.00;;;5.80;99.90;;;;;;5101748;28;20172;-54
2021/12/25 04:10:46;;;;;;;11.57;8.02;;;5.80;99.90;;;;;;5101648;28;20217;-54
2021/12/25 04:13:16;;;;;;;12.77;8.70;;;5.70;99.90;;;;;;5108065;28;20268;-54
2021/12/25 04:15:42;;;;;;;12.20;9.30;;;5.70;99.90;;;;;;5110356;28;20624;-53
2021/12/25 04:18:09;;;;;;;12.45;9.15;;;5.70;99.90;;;;;;5103746;28;20296;-54
2021/12/25 04:20:35;;;;;;;15.45;9.85;;;5.70;99.90;;;;;;5103886;28;20165;-53
2021/12/25 04:23:05;;;;;;;12.60;9.88;;;5.70;99.90;;;;;;5089957;28;20177;-53
2021/12/25 04:25:33;;;;;;;16.48;9.95;;;5.70;99.90;;;;;;5105973;28;20681;-54
2021/12/25 04:28:21;;;;;;;13.98;10.25;;;5.60;99.90;;;;;;5112843;28;20172;-53
2021/12/25 05:04:03;;;;;;;14.43;9.20;;;5.20;99.90;;;;;;5109853;28;20233;-55
2021/12/25 05:06:28;;;;;;;14.10;9.38;;;5.00;99.90;;;;;;5093820;28;20165;-55
2021/12/25 05:08:55;;;;;;;14.18;10.57;;;5.10;99.90;;;;;;5096457;28;20218;-54
2021/12/25 05:11:22;;;;;;;11.68;7.38;;;5.20;99.90;;;;;;5100023;28;20582;-55
2021/12/25 05:13:49;;;;;;;15.48;10.93;;;5.10;99.90;;;;;;5107332;28;20169;-54
2021/12/25 05:16:19;;;;;;;15.70;11.40;;;5.20;99.90;;;;;;5098954;28;20173;-54
2021/12/25 05:18:45;;;;;;;16.13;11.23;;;5.10;99.90;;;;;;5100606;28;20257;-54
2021/12/25 05:21:12;;;;;;;15.70;11.93;;;5.00;99.90;;;;;;5106089;28;20267;-55
2021/12/25 05:23:39;;;;;;;12.38;8.98;;;5.00;99.90;;;;;;5093861;28;20169;-54
2021/12/25 05:26:05;;;;;;;17.42;12.45;;;5.00;99.90;;;;;;5094111;28;20169;-54
2021/12/25 05:28:39;;;;;;;16.83;11.82;;;5.00;99.90;;;;;;5100163;28;20179;-54
2021/12/25 05:31:06;;;;;;;14.30;10.70;;;5.00;99.90;;;;;;5106699;28;20196;-54
2021/12/25 05:33:32;;;;;;;17.13;12.07;;;4.90;99.90;;;;;;5111942;28;20554;-54
2021/12/25 05:35:58;;;;;;;16.58;10.88;;;4.90;99.90;;;;;;5097377;28;20184;-55
2021/12/25 05:38:24;;;;;;;18.20;12.73;;;4.90;99.90;;;;;;5100319;28;20212;-55
2021/12/25 05:40:50;;;;;;;16.75;12.13;;;4.90;99.90;;;;;;5104968;28;20172;-55
2021/12/25 05:43:16;;;;;;;16.45;11.43;;;4.90;99.90;;;;;;5103315;28;20185;-54
2021/12/25 05:45:42;;;;;;;17.15;11.27;;;4.90;99.90;;;;;;5103857;28;20222;-55
2021/12/25 05:48:08;;;;;;;17.67;12.75;;;4.90;99.90;;;;;;5099294;28;20165;-55
2021/12/25 05:50:34;;;;;;;17.17;12.13;;;4.80;99.90;;;;;;5102670;28;20160;-55
2021/12/25 05:53:00;;;;;;;17.25;12.80;;;4.80;99.90;;;;;;5112104;28;20163;-56
2021/12/25 05:55:26;;;;;;;17.15;13.00;;;4.80;99.90;;;;;;5094458;28;20212;-55
2021/12/25 05:57:52;;;;;;;17.65;13.10;;;4.70;99.90;;;;;;5102768;28;20196;-55
2021/12/25 06:00:19;;;;;;;16.30;11.98;;;4.70;99.90;;;;;;5103891;28;20174;-55
2021/12/25 06:02:46;;;;;;;17.65;13.60;;;4.60;99.90;;;;;;5074374;28;20173;-55
2021/12/25 06:05:11;;;;;;;15.32;11.48;;;4.50;99.90;;;;;;5097872;28;20233;-55
2021/12/25 06:07:37;;;;;;;17.02;12.60;;;4.50;99.90;;;;;;5102819;28;20243;-55
2021/12/25 06:10:07;;;;;;;13.75;6.80;;;4.60;99.90;;;;;;5096043;28;20180;-54
2021/12/25 06:12:33;;;;;;;14.57;11.20;;;4.50;99.90;;;;;;5102365;28;20576;-54
2021/12/25 06:15:01;;;;;;;15.07;11.48;;;4.30;99.90;;;;;;5092937;28;20176;-54
2021/12/25 06:17:27;;;;;;;9.38;6.20;;;4.40;99.90;;;;;;5096146;28;20697;-56
2021/12/25 06:19:53;;;;;;;19.67;12.68;;;4.40;99.90;;;;;;5100455;28;20260;-55
2021/12/25 06:22:19;;;;;;;15.05;11.30;;;4.40;99.90;;;;;;5094745;28;20251;-55
2021/12/25 06:24:49;;;;;;;14.88;11.10;;;4.40;99.90;;;;;;5102140;28;20180;-55
2021/12/25 06:27:19;;;;;;;16.33;12.00;;;4.40;99.90;;;;;;5092182;28;20169;-55
2021/12/25 06:29:44;;;;;;;19.70;13.25;;;4.40;99.90;;;;;;5105368;28;20219;-55
2021/12/25 06:32:10;;;;;;;14.55;11.55;;;4.30;99.90;;;;;;5093210;28;20574;-54
2021/12/25 06:34:36;;;;;;;17.58;12.40;;;4.40;99.90;;;;;;5101513;28;20188;-55
2021/12/25 06:37:02;;;;;;;13.55;9.85;;;4.40;99.90;;;;;;5091243;28;20637;-54
2021/12/25 06:39:28;;;;;;;14.45;11.75;;;4.30;99.90;;;;;;5088124;28;20208;-55
2021/12/25 06:41:54;;;;;;;15.02;9.95;;;4.30;99.90;;;;;;5095181;28;20175;-55
2021/12/25 06:44:23;;;;;;;13.05;8.93;;;4.30;99.90;;;;;;5107329;28;20174;-55
2021/12/25 06:46:49;;;;;;;15.68;11.32;;;4.20;99.90;;;;;;5094897;28;20184;-55
2021/12/25 06:49:14;;;;;;;16.30;11.68;;;4.20;99.90;;;;;;5106416;28;20174;-55
2021/12/25 06:51:40;;;;;;;16.20;12.07;;;4.10;99.90;;;;;;5099172;28;20529;-53
2021/12/25 06:54:05;;;;;;;14.48;10.85;;;4.20;99.90;;;;;;5102032;28;20177;-54
2021/12/25 06:56:32;;;;;;;15.75;11.93;;;4.20;99.90;;;;;;5100002;28;20185;-53
2021/12/25 06:58:57;;;;;;;15.13;10.63;;;4.20;99.90;;;;;;5095838;28;20227;-54
2021/12/25 07:01:23;;;;;;;15.02;11.60;;;4.20;99.90;;;;;;5079896;28;20162;-55
2021/12/25 07:03:48;;;;;;;16.15;11.15;;;4.20;99.90;;;;;;5103734;28;20173;-55
2021/12/25 07:06:14;;;;;;;14.30;10.77;;;4.20;99.90;;;;;;5101598;28;20173;-55
2021/12/25 07:08:40;;;;;;;13.93;10.68;;;4.20;99.90;;;;;;5102412;28;20510;-55
2021/12/25 07:11:05;;;;;;;12.80;10.15;;;4.10;99.90;;;;;;5100973;28;20250;-54
2021/12/25 07:13:31;;;;;;;12.43;9.55;;;4.10;99.90;;;;;;5105718;28;20169;-52
2021/12/25 07:15:56;;;;;;;12.80;9.75;;;4.10;99.90;;;;;;5108748;28;20164;-54
2021/12/25 07:18:22;;;;;;;13.55;10.60;;;4.10;99.90;;;;;;5111159;28;20203;-55
2021/12/25 07:20:50;;;;;;;12.85;9.90;;;4.00;99.90;;;;;;5109445;28;20230;-55
2021/12/25 07:23:16;;;;;;;12.40;10.32;;;4.10;99.90;;;;;;5101802;28;20165;-55
2021/12/25 07:25:42;;;;;;;10.70;7.65;;;4.10;99.90;;;;;;5105140;28;20546;-54
2021/12/25 07:28:08;;;;;;;13.43;9.77;;;3.90;99.90;;;;;;5101733;28;20222;-54
2021/12/25 07:30:33;;;;;;;11.52;7.85;;;4.00;99.90;;;;;;5102128;28;20172;-54
2021/12/25 07:32:59;;;;;;;13.50;9.13;;;3.90;99.90;;;;;;5111462;28;20700;-54
2021/12/25 07:35:26;;;;;;;11.30;8.10;;;3.90;99.90;;;;;;5102592;28;20297;-54
2021/12/25 07:37:52;;;;;;;10.40;6.95;;;3.80;99.90;;;;;;5114179;28;20211;-55
2021/12/25 07:40:17;;;;;;;10.65;8.70;;;3.90;99.90;;;;;;5101573;28;20629;-54
2021/12/25 07:42:43;;;;;;;10.80;8.43;;;4.00;99.90;;;;;;5093681;28;20169;-54
2021/12/25 07:45:10;;;;;;;12.18;9.10;;;3.90;99.90;;;;;;5093633;28;20169;-54
2021/12/25 07:47:40;;;;;;;10.13;7.35;;;3.80;99.90;;;;;;5093821;28;20215;-55
2021/12/25 07:50:06;;;;;;;11.65;8.27;;;3.80;99.90;;;;;;5093799;28;20280;-54
2021/12/25 07:52:32;;;;;;;12.73;9.05;;;3.80;99.90;;;;;;5106581;28;20169;-54
2021/12/25 07:54:58;;;;;;;13.20;8.75;;;3.80;99.90;;;;;;5114082;28;20185;-53
2021/12/25 07:57:24;;;;;;;11.20;8.23;;;3.90;99.90;;;;;;5113876;28;20514;-55
2021/12/25 07:59:49;;;;;;;9.07;6.63;;;3.70;99.90;;;;;;5114010;28;20208;-53
2021/12/25 08:02:15;;;;;;;10.13;6.88;;;3.70;99.90;;;;;;5113941;28;20544;-55
2021/12/25 08:04:41;;;;;;;9.98;7.53;;;3.70;99.90;;;;;;5110033;28;20191;-54
2021/12/25 08:07:06;;;;;;;12.18;9.05;;;3.70;99.90;;;;;;5103452;28;20173;-54
2021/12/25 08:09:32;;;;;;;9.88;7.80;;;3.80;99.90;;;;;;5113774;28;20195;-53
2021/12/25 08:12:02;;;;;;;7.72;6.25;;;3.70;99.90;;;;;;5112795;28;20250;-53
2021/12/25 08:14:29;;;;;;;10.32;7.18;;;3.60;99.90;;;;;;5113741;28;20158;-53
2021/12/25 08:16:57;;;;;;;11.95;8.23;;;3.60;99.90;;;;;;5113504;28;20211;-54
2021/12/25 08:19:23;;;;;;;10.50;7.50;;;3.60;99.90;;;;;;5101500;28;20204;-54
2021/12/25 08:21:50;;;;;;;10.63;7.60;;;3.60;99.90;;;;;;5092977;28;20305;-54
2021/12/25 08:24:18;;;;;;;8.57;6.53;;;3.60;99.90;;;;;;5092766;28;20250;-53
2021/12/25 08:26:46;;;;;;;10.10;7.75;;;3.60;99.90;;;;;;5106755;28;20168;-53
2021/12/25 08:29:12;;;;;;;9.55;7.35;;;3.70;99.90;;;;;;5105191;28;20181;-54
2021/12/25 08:31:38;;;;;;;7.57;5.68;;;3.60;99.90;;;;;;5092239;28;20166;-52
2021/12/25 08:34:04;;;;;;;7.88;5.97;;;3.50;99.90;;;;;;5098580;28;20244;-53
2021/12/25 08:36:29;;;;;;;9.18;5.55;;;3.40;99.90;;;;;;5102818;28;20565;-54
2021/12/25 08:38:55;;;;;;;9.25;7.35;;;3.50;99.90;;;;;;5105873;28;20230;-53
2021/12/25 08:41:25;;;;;;;7.25;5.35;;;3.50;99.90;;;;;;5092456;28;20226;-53
2021/12/25 08:43:56;;;;;;;8.13;6.20;;;3.50;99.90;;;;;;5094268;28;20670;-54
2021/12/25 08:46:42;;;;;;;9.45;7.60;;;3.60;99.90;;;;;;5093486;28;20174;-53
2021/12/25 08:49:10;;;;;;;7.63;6.32;;;3.60;99.90;;;;;;5092319;28;20200;-53
2021/12/25 08:51:36;;;;;;;10.13;6.47;;;3.50;99.90;;;;;;5093233;28;20204;-54
2021/12/25 08:54:02;;;;;;;8.00;5.65;;;3.50;99.90;;;;;;5092665;28;20158;-52
2021/12/25 08:56:27;;;;;;;8.15;6.47;;;3.50;99.90;;;;;;5093082;28;20161;-53
2021/12/25 08:58:53;;;;;;;8.75;6.50;;;3.50;99.90;;;;;;5092908;28;20209;-53
2021/12/25 09:01:19;;;;;;;5.57;4.57;;;3.50;99.90;;;;;;5092780;28;20613;-53
2021/12/25 09:03:44;;;;;;;13.18;8.20;;;3.50;99.90;;;;;;5092243;28;20169;-54
2021/12/25 09:06:10;;;;;;;6.32;5.07;;;3.50;99.90;;;;;;5092712;28;20254;-53
2021/12/25 09:08:35;;;;;;;6.93;5.78;;;3.40;99.90;;;;;;5092426;28;20173;-53
2021/12/25 09:11:02;;;;;;;8.80;6.88;;;3.30;99.90;;;;;;5092117;28;20223;-53
2021/12/25 09:13:27;;;;;;;8.68;5.72;;;3.50;99.90;;;;;;5092478;28;20169;-53
2021/12/25 09:15:53;;;;;;;8.45;6.13;;;3.40;99.90;;;;;;5092402;28;20218;-54
2021/12/25 09:18:18;;;;;;;9.90;6.28;;;3.40;99.90;;;;;;5091390;28;20193;-54
2021/12/25 09:20:44;;;;;;;10.70;7.20;;;3.40;99.90;;;;;;5092212;28;20256;-54
2021/12/25 09:23:10;;;;;;;7.45;6.10;;;3.40;99.90;;;;;;5092380;28;20166;-53
2021/12/25 09:25:35;;;;;;;7.72;5.93;;;3.40;99.90;;;;;;5092134;28;20196;-54
2021/12/25 09:28:01;;;;;;;7.70;6.10;;;3.40;99.90;;;;;;5092582;28;20165;-53
2021/12/25 09:30:28;;;;;;;9.85;7.50;;;3.50;99.90;;;;;;5092591;28;20189;-54
2021/12/25 09:32:54;;;;;;;7.78;6.72;;;3.50;99.90;;;;;;5092251;28;20201;-54
2021/12/25 09:35:21;;;;;;;4.88;4.30;;;3.50;99.90;;;;;;5092235;28;20854;-54
2021/12/25 09:37:47;;;;;;;7.78;6.75;;;3.40;99.90;;;;;;5092093;28;20546;-53
2021/12/25 09:40:13;;;;;;;5.15;3.85;;;3.50;99.90;;;;;;5092387;28;20173;-54
2021/12/25 09:42:40;;;;;;;8.68;7.10;;;3.50;99.90;;;;;;5092158;28;20629;-54
2021/12/25 09:45:08;;;;;;;9.27;6.53;;;3.50;99.90;;;;;;5092000;28;20165;-52
2021/12/25 09:47:33;;;;;;;8.30;6.47;;;3.60;99.90;;;;;;5092050;28;20656;-52
2021/12/25 09:49:59;;;;;;;8.88;6.85;;;3.70;99.90;;;;;;5092322;28;20244;-52
2021/12/25 09:52:24;;;;;;;7.75;6.78;;;3.70;99.90;;;;;;5091893;28;20660;-55
2021/12/25 09:54:50;;;;;;;7.32;5.60;;;3.80;99.90;;;;;;5091950;28;20622;-53
2021/12/25 09:57:16;;;;;;;6.80;5.95;;;3.70;99.90;;;;;;5091997;28;20170;-53
2021/12/25 09:59:42;;;;;;;8.95;7.32;;;3.70;99.90;;;;;;5092175;28;20211;-53
2021/12/25 10:02:14;;;;;;;9.60;6.05;;;3.80;99.90;;;;;;5091973;28;20568;-53
2021/12/25 10:04:51;;;;;;;7.70;6.00;;;3.80;99.90;;;;;;5092101;28;20223;-53
2021/12/25 10:07:22;;;;;;;10.60;7.30;;;3.70;99.90;;;;;;5073867;28;20165;-53
2021/12/25 10:10:05;;;;;;;5.47;4.00;;;3.70;99.90;;;;;;5092120;28;20173;-55
2021/12/25 10:12:36;;;;;;;9.10;6.78;;;3.70;99.90;;;;;;5091701;28;20184;-48
2021/12/25 10:15:06;;;;;;;9.70;7.78;;;3.70;99.90;;;;;;5091407;28;20187;-53
2021/12/25 10:17:32;;;;;;;9.65;7.70;;;3.80;99.90;;;;;;5091917;28;20166;-53
2021/12/25 10:20:07;;;;;;;7.18;6.13;;;3.80;99.90;;;;;;5092232;28;20220;-54
2021/12/25 10:23:36;;;;;;;9.80;6.20;;;3.80;99.90;;;;;;5091459;28;20235;-52
2021/12/25 10:26:01;;;;;;;8.27;6.47;;;3.70;99.90;;;;;;5070291;28;20181;-53
2021/12/25 10:28:33;;;;;;;9.10;6.07;;;3.80;99.90;;;;;;5092019;28;20169;-53
2021/12/25 10:31:03;;;;;;;9.35;7.40;;;3.80;99.90;;;;;;5095109;28;20317;-53
2021/12/25 10:33:30;;;;;;;10.10;7.50;;;3.90;99.90;;;;;;5095465;28;20169;-52
2021/12/25 10:35:59;;;;;;;6.90;6.00;;;3.90;99.90;;;;;;5096031;28;20169;-53
2021/12/25 10:38:26;;;;;;;8.25;7.22;;;3.90;99.90;;;;;;5094971;28;20201;-53
2021/12/25 10:41:19;;;;;;;7.97;6.38;;;3.90;99.90;;;;;;5095275;28;20153;-51
2021/12/25 10:43:47;;;;;;;7.13;6.28;;;3.90;99.90;;;;;;5095411;28;20162;-53
2021/12/25 10:46:12;;;;;;;6.93;6.22;;;4.00;99.90;;;;;;5094465;28;20184;-52
2021/12/25 10:48:38;;;;;;;9.30;7.40;;;4.00;99.90;;;;;;5092729;28;20161;-54
2021/12/25 10:51:04;;;;;;;5.30;4.78;;;4.10;99.90;;;;;;5093192;28;20252;-52
2021/12/25 10:53:42;;;;;;;8.00;6.03;;;4.10;99.90;;;;;;5095333;28;20158;-53
2021/12/25 10:56:12;;;;;;;7.82;4.93;;;4.10;99.90;;;;;;5094917;28;20183;-52
2021/12/25 10:58:43;;;;;;;7.18;6.32;;;3.90;99.90;;;;;;5094989;28;20204;-53
2021/12/25 11:01:15;;;;;;;6.43;5.35;;;3.90;99.90;;;;;;5094349;28;20582;-53
2021/12/25 11:03:44;;;;;;;7.80;6.93;;;3.80;99.90;;;;;;5094326;28;20178;-53
2021/12/25 11:06:13;;;;;;;7.45;5.97;;;3.90;99.90;;;;;;5094739;28;20532;-52
2021/12/25 11:08:41;;;;;;;7.50;6.35;;;4.00;99.90;;;;;;5094405;28;20675;-53
2021/12/25 11:11:20;;;;;;;7.10;5.65;;;3.90;99.90;;;;;;5094292;28;20765;-53
2021/12/25 11:13:50;;;;;;;7.50;6.13;;;4.00;99.90;;;;;;5076323;28;20185;-53
2021/12/25 11:16:30;;;;;;;6.28;5.07;;;4.00;99.90;;;;;;5094552;28;20201;-53
2021/12/25 11:21:35;;;;;;;8.27;7.32;;;3.90;99.90;;;;;;5094329;28;20287;-53
2021/12/25 11:24:09;;;;;;;9.65;6.90;;;4.00;99.90;;;;;;5075985;28;20218;-51
2021/12/25 11:26:36;;;;;;;9.18;7.32;;;3.90;99.90;;;;;;5094166;28;20170;-50
2021/12/25 11:29:04;;;;;;;5.55;4.47;;;3.80;99.90;;;;;;5093776;28;20256;-52
2021/12/25 11:31:31;;;;;;;8.95;5.88;;;3.80;99.90;;;;;;5093869;28;20161;-51
2021/12/25 11:33:57;;;;;;;5.80;4.97;;;2.90;99.90;;;;;;5094415;28;20169;-52
2021/12/25 11:36:23;;;;;;;7.50;6.65;;;3.80;99.90;;;;;;5075809;28;20172;-52
2021/12/25 11:38:53;;;;;;;5.93;5.20;;;3.80;99.90;;;;;;5093334;28;20201;-53
2021/12/25 11:41:19;;;;;;;6.18;4.55;;;3.90;99.90;;;;;;5092429;28;20170;-51
2021/12/25 11:43:46;;;;;;;5.80;4.88;;;3.90;99.90;;;;;;5094028;28;20252;-53
2021/12/25 11:46:16;;;;;;;8.57;6.20;;;3.80;99.90;;;;;;5093093;28;20186;-53
2021/12/25 11:48:42;;;;;;;7.78;6.05;;;3.90;99.90;;;;;;5093495;28;20165;-53
2021/12/25 11:51:27;;;;;;;7.28;6.18;;;4.00;99.90;;;;;;5093873;28;20248;-53
2021/12/25 11:56:48;;;;;;;7.95;6.38;;;4.10;99.90;;;;;;5093968;28;20175;-52
2021/12/25 11:59:19;;;;;;;8.23;6.65;;;4.00;99.90;;;;;;5093165;28;20197;-53
2021/12/25 12:01:49;;;;;;;6.63;5.78;;;4.10;99.90;;;;;;5093405;28;20165;-53
2021/12/25 12:04:22;;;;;;;6.63;5.95;;;4.10;99.90;;;;;;5093631;28;20176;-55
2021/12/25 12:06:47;;;;;;;6.55;4.97;;;4.00;99.90;;;;;;5093650;28;20164;-54
2021/12/25 12:09:50;;;;;;;6.85;5.82;;;3.90;99.90;;;;;;5093437;28;20165;-53
2021/12/25 12:12:25;;;;;;;6.70;5.40;;;3.90;99.90;;;;;;5092170;28;20578;-54
2021/12/25 12:15:06;;;;;;;5.00;4.47;;;3.90;99.90;;;;;;5093378;28;20514;-54
2021/12/25 12:17:32;;;;;;;5.45;4.20;;;3.90;99.90;;;;;;5093349;28;20173;-53
2021/12/25 12:20:02;;;;;;;5.38;4.88;;;3.90;99.90;;;;;;5093113;28;20684;-54
2021/12/25 12:22:53;;;;;;;4.93;3.75;;;3.80;99.90;;;;;;5093863;28;20177;-54
2021/12/25 12:27:57;;;;;;;4.50;3.85;;;3.70;99.90;;;;;;5093537;28;20161;-53
2021/12/25 12:30:32;;;;;;;6.25;4.72;;;3.60;99.90;;;;;;5093157;28;20171;-54
2021/12/25 12:33:21;;;;;;;6.30;3.88;;;3.60;99.90;;;;;;5093552;28;20533;-54
2021/12/25 12:35:49;;;;;;;6.28;3.80;;;3.50;99.90;;;;;;5075412;28;20287;-54
2021/12/25 12:38:42;;;;;;;6.63;5.00;;;3.50;99.90;;;;;;5093063;28;20212;-54
2021/12/25 12:41:22;;;;;;;7.03;5.82;;;3.50;99.90;;;;;;5093115;28;20179;-53
2021/12/25 12:44:16;;;;;;;5.72;4.68;;;3.50;99.90;;;;;;5093049;28;20244;-53
2021/12/25 12:46:51;;;;;;;4.82;3.85;;;3.40;99.90;;;;;;5092906;28;20252;-53
2021/12/25 12:49:52;;;;;;;6.43;5.22;;;3.30;99.90;;;;;;5092957;28;20171;-53
2021/12/25 12:52:20;;;;;;;8.55;4.43;;;3.30;99.90;;;;;;5092697;28;20177;-54
2021/12/25 12:54:51;;;;;;;6.63;5.50;;;3.20;99.90;;;;;;5093119;28;20260;-54
2021/12/25 12:57:27;;;;;;;5.35;3.35;;;3.20;99.90;;;;;;5093043;28;20201;-53
2021/12/25 12:59:59;;;;;;;4.88;3.42;;;3.20;99.90;;;;;;5092673;28;20208;-54
2021/12/25 13:02:28;;;;;;;5.25;4.57;;;3.20;99.90;;;;;;5093261;28;20175;-53
2021/12/25 13:04:58;;;;;;;5.65;4.75;;;3.30;99.90;;;;;;5092654;28;20721;-53
2021/12/25 13:07:26;;;;;;;7.55;6.25;;;3.20;99.90;;;;;;5092854;28;20179;-53
2021/12/25 13:10:11;;;;;;;7.03;4.97;;;3.30;99.90;;;;;;5092838;28;20215;-54
2021/12/25 13:12:42;;;;;;;8.82;5.60;;;3.40;99.90;;;;;;5092827;28;20215;-53
2021/12/25 13:15:19;;;;;;;4.90;4.25;;;3.40;99.90;;;;;;5092537;28;20720;-53
2021/12/25 13:17:55;;;;;;;5.88;4.93;;;3.30;99.90;;;;;;5092752;28;20608;-54
2021/12/25 13:21:07;;;;;;;4.03;3.45;;;3.40;99.90;;;;;;5092652;28;21025;-52
2021/12/25 13:23:36;;;;;;;5.25;4.50;;;3.20;99.90;;;;;;5072344;28;20173;-54
2021/12/25 13:26:07;;;;;;;6.55;4.55;;;3.20;99.90;;;;;;5092597;28;20173;-53
2021/12/25 13:28:36;;;;;;;5.53;4.63;;;3.30;99.90;;;;;;5092536;28;20208;-53
2021/12/25 13:31:09;;;;;;;6.18;4.97;;;3.30;99.90;;;;;;5092296;28;20581;-53
2021/12/25 13:33:42;;;;;;;4.47;3.50;;;3.20;99.90;;;;;;5074114;28;20610;-53
2021/12/25 13:36:11;;;;;;;7.28;5.05;;;3.20;99.90;;;;;;5091988;28;20692;-53
2021/12/25 13:38:58;;;;;;;8.48;5.45;;;3.30;99.90;;;;;;5092205;28;20196;-52
2021/12/25 13:41:38;;;;;;;5.32;4.25;;;3.40;99.90;;;;;;5092129;28;20180;-53
2021/12/25 13:44:25;;;;;;;5.97;5.25;;;3.40;99.90;;;;;;5092051;28;20180;-52
2021/12/25 13:46:59;;;;;;;6.15;4.57;;;3.40;99.90;;;;;;5091882;28;20651;-52
2021/12/25 13:49:40;;;;;;;7.45;4.40;;;3.40;99.90;;;;;;5092169;28;20169;-52
2021/12/25 13:52:33;;;;;;;5.53;3.90;;;3.40;99.90;;;;;;5091844;28;20173;-52
2021/12/25 13:55:11;;;;;;;6.63;4.90;;;3.40;99.90;;;;;;5092446;28;20171;-52
2021/12/25 13:57:48;;;;;;;6.82;5.35;;;3.40;99.90;;;;;;5092253;28;20183;-52
2021/12/25 14:00:16;;;;;;;4.32;3.90;;;3.50;99.90;;;;;;5092025;28;20222;-52
2021/12/25 14:02:45;;;;;;;5.65;4.35;;;3.50;99.90;;;;;;5092336;28;20244;-52
2021/12/25 14:05:11;;;;;;;5.97;4.63;;;3.60;99.90;;;;;;5093911;28;20640;-53
2021/12/25 14:07:39;;;;;;;6.00;4.93;;;3.70;99.90;;;;;;5078264;28;20256;-52
2021/12/25 14:10:23;;;;;;;4.43;4.03;;;3.70;99.90;;;;;;5095801;28;20512;-52
2021/12/25 14:12:54;;;;;;;5.45;4.47;;;3.60;99.90;;;;;;5095988;28;20201;-52
2021/12/25 14:15:23;;;;;;;5.32;4.38;;;3.60;99.90;;;;;;5078241;28;20525;-52
2021/12/25 14:17:50;;;;;;;5.15;3.60;;;3.60;99.90;;;;;;5096032;28;20169;-53